Time;durP1;ratioP1;P1;durP2;ratioP2;P2;SDS_P1;SDS_P2;PMS_P1;PMS_P2;Temp;Humidity;BMP_temperature;BMP_pressure;BME280_temperature;BME280_humidity;BME280_pressure;Samples;Min_cycle;Max_cycle;Signal;HPM_P1;HPM_P2
2023/01/22 00:02:17;;;;;;;7.88;4.80;;;2.00;69.10;;;;;;5033826;28;20018;-60
2023/01/22 00:04:43;;;;;;;9.48;5.50;;;2.00;69.10;;;;;;5034423;28;20528;-60
2023/01/22 00:07:08;;;;;;;8.52;4.88;;;1.90;69.10;;;;;;5032848;28;20026;-61
2023/01/22 00:09:34;;;;;;;7.97;5.10;;;2.00;69.00;;;;;;5013236;28;20022;-61
2023/01/22 00:12:00;;;;;;;7.10;4.93;;;2.00;69.10;;;;;;5036715;28;20034;-61
2023/01/22 00:14:25;;;;;;;7.47;4.80;;;2.00;69.10;;;;;;5028278;28;20017;-60
2023/01/22 00:16:51;;;;;;;6.38;4.65;;;2.20;69.20;;;;;;5026883;28;20048;-60
2023/01/22 00:19:17;;;;;;;7.60;4.63;;;2.00;68.80;;;;;;5029184;28;20029;-60
2023/01/22 00:21:42;;;;;;;9.43;5.35;;;2.10;69.10;;;;;;5033214;28;20041;-61
2023/01/22 00:24:08;;;;;;;9.25;4.55;;;2.00;69.00;;;;;;5029033;28;20033;-61
2023/01/22 00:26:35;;;;;;;8.52;4.82;;;1.90;68.90;;;;;;5035645;28;20036;-60
2023/01/22 00:29:01;;;;;;;7.97;5.38;;;1.90;69.00;;;;;;5037578;28;20033;-61
2023/01/22 00:31:26;;;;;;;7.38;5.32;;;1.90;69.10;;;;;;5027833;28;20022;-60
2023/01/22 00:33:52;;;;;;;6.05;4.65;;;1.90;69.10;;;;;;5029245;28;20025;-60
2023/01/22 00:36:20;;;;;;;8.02;4.65;;;1.90;69.10;;;;;;5034460;28;20030;-60
2023/01/22 00:38:46;;;;;;;6.80;5.07;;;1.90;69.20;;;;;;5031997;28;20107;-61
2023/01/22 00:41:13;;;;;;;7.78;5.30;;;2.00;69.30;;;;;;5034287;28;20040;-62
2023/01/22 00:43:39;;;;;;;7.30;4.80;;;2.00;69.20;;;;;;5028525;28;20052;-61
2023/01/22 00:46:06;;;;;;;9.40;5.82;;;1.90;69.10;;;;;;5033298;28;20056;-60
2023/01/22 00:48:32;;;;;;;7.43;5.25;;;2.10;69.10;;;;;;5024785;28;20021;-62
2023/01/22 00:50:58;;;;;;;7.53;4.88;;;1.90;69.10;;;;;;5029230;28;20124;-61
2023/01/22 00:53:24;;;;;;;7.53;5.10;;;1.90;69.20;;;;;;5029968;28;20022;-61
2023/01/22 00:55:57;;;;;;;9.57;5.80;;;2.00;69.20;;;;;;5026600;28;20033;-62
2023/01/22 00:58:23;;;;;;;7.28;5.40;;;1.90;69.30;;;;;;5015116;28;20405;-61
2023/01/22 01:00:49;;;;;;;9.02;4.90;;;1.90;69.30;;;;;;5036013;28;20037;-60
2023/01/22 01:03:30;;;;;;;7.55;5.30;;;1.80;69.30;;;;;;5026513;28;20601;-61
2023/01/22 01:05:58;;;;;;;8.45;5.57;;;1.90;69.20;;;;;;5032706;28;20036;-60
2023/01/22 01:08:25;;;;;;;9.18;5.57;;;2.00;69.40;;;;;;5011784;28;20068;-60
2023/01/22 01:10:57;;;;;;;9.73;6.28;;;1.80;69.50;;;;;;5012741;28;20029;-61
2023/01/22 01:13:24;;;;;;;9.35;5.93;;;1.80;69.40;;;;;;5008654;28;20081;-60
2023/01/22 01:15:58;;;;;;;7.90;5.03;;;1.80;69.40;;;;;;5013099;28;20071;-60
2023/01/22 01:18:35;;;;;;;9.80;5.55;;;1.80;69.70;;;;;;5010442;28;20044;-59
2023/01/22 01:21:02;;;;;;;10.25;5.65;;;1.80;69.60;;;;;;5021909;28;20410;-61
2023/01/22 01:23:28;;;;;;;8.52;5.55;;;1.80;69.60;;;;;;5034007;28;20040;-60
2023/01/22 01:25:54;;;;;;;8.93;6.18;;;1.90;69.90;;;;;;5023727;28;20034;-61
2023/01/22 01:28:20;;;;;;;8.45;5.45;;;2.00;69.50;;;;;;5026298;28;20026;-60
2023/01/22 01:30:46;;;;;;;9.07;6.28;;;1.80;69.60;;;;;;5032082;28;20064;-61
2023/01/22 01:33:12;;;;;;;10.23;6.00;;;1.90;70.00;;;;;;5030599;28;20029;-60
2023/01/22 01:35:37;;;;;;;9.63;6.32;;;1.90;70.00;;;;;;5025545;28;20029;-60
2023/01/22 01:38:04;;;;;;;10.30;6.30;;;2.10;70.00;;;;;;5028662;28;20026;-60
2023/01/22 01:40:29;;;;;;;10.10;6.53;;;1.90;70.00;;;;;;5033953;28;20790;-60
2023/01/22 01:42:55;;;;;;;8.90;5.90;;;1.90;69.70;;;;;;5026030;28;20021;-61
2023/01/22 01:45:28;;;;;;;8.10;5.38;;;1.90;69.80;;;;;;5033227;28;20053;-60
2023/01/22 01:48:16;;;;;;;9.23;5.90;;;2.10;70.10;;;;;;5026453;28;20041;-61
2023/01/22 01:50:47;;;;;;;9.98;5.53;;;1.90;69.70;;;;;;5023447;28;20049;-60
2023/01/22 01:53:12;;;;;;;9.32;5.90;;;2.10;69.80;;;;;;5026148;28;20094;-60
2023/01/22 01:55:39;;;;;;;10.43;6.93;;;1.90;69.80;;;;;;5029243;28;20278;-60
2023/01/22 01:58:11;;;;;;;10.75;6.32;;;1.90;69.60;;;;;;5030144;28;20026;-60
2023/01/22 02:00:40;;;;;;;10.82;6.80;;;1.90;69.70;;;;;;5026124;28;20084;-60
2023/01/22 02:03:05;;;;;;;10.88;6.65;;;2.00;70.00;;;;;;5010712;28;20045;-60
2023/01/22 02:05:36;;;;;;;9.75;6.55;;;2.00;70.10;;;;;;5031066;28;20022;-61
2023/01/22 02:08:02;;;;;;;12.00;6.00;;;2.00;70.00;;;;;;5029556;28;20037;-61
2023/01/22 02:10:28;;;;;;;9.15;5.85;;;2.00;69.80;;;;;;5033793;28;20037;-59
2023/01/22 02:12:56;;;;;;;8.77;5.72;;;2.00;69.70;;;;;;5025573;28;20033;-59
2023/01/22 02:15:22;;;;;;;12.70;6.82;;;2.00;69.90;;;;;;5029999;28;20029;-59
2023/01/22 02:17:48;;;;;;;11.27;7.07;;;2.10;70.10;;;;;;5028187;28;20394;-59
2023/01/22 02:20:14;;;;;;;10.85;6.45;;;2.10;69.60;;;;;;4974119;28;20049;-59
2023/01/22 02:22:40;;;;;;;11.63;6.53;;;2.10;69.70;;;;;;5035894;28;20445;-59
2023/01/22 02:25:07;;;;;;;11.35;6.78;;;2.10;70.00;;;;;;5036372;28;20029;-59
2023/01/22 02:27:32;;;;;;;11.20;6.70;;;2.00;69.80;;;;;;5029451;28;20022;-59
2023/01/22 02:29:58;;;;;;;13.30;7.13;;;2.10;70.00;;;;;;5034272;28;20144;-59
2023/01/22 02:32:24;;;;;;;10.70;6.55;;;2.00;70.00;;;;;;5027291;28;20029;-59
2023/01/22 02:34:49;;;;;;;11.15;6.53;;;2.00;70.10;;;;;;5031277;28;20038;-59
2023/01/22 02:37:15;;;;;;;10.45;6.45;;;2.20;70.30;;;;;;5024224;28;20046;-59
2023/01/22 02:39:41;;;;;;;11.93;7.35;;;2.10;70.20;;;;;;5032514;28;20469;-60
2023/01/22 02:42:07;;;;;;;11.77;7.65;;;2.10;70.20;;;;;;5028433;28;20060;-60
2023/01/22 02:44:33;;;;;;;11.88;7.75;;;2.10;70.30;;;;;;5029091;28;20088;-61
2023/01/22 02:46:59;;;;;;;11.80;7.03;;;2.30;70.00;;;;;;5028733;28;20041;-59
2023/01/22 02:49:25;;;;;;;11.32;7.13;;;2.40;70.10;;;;;;5028008;28;20050;-60
2023/01/22 02:51:51;;;;;;;12.20;7.50;;;2.10;70.00;;;;;;5032452;28;20084;-59
2023/01/22 02:54:16;;;;;;;13.52;8.38;;;2.10;70.00;;;;;;5032857;28;20092;-59
2023/01/22 02:56:42;;;;;;;12.18;7.90;;;2.10;69.80;;;;;;5032789;28;20026;-59
2023/01/22 02:59:08;;;;;;;12.48;7.53;;;2.20;70.20;;;;;;5034966;28;20068;-59
2023/01/22 03:01:34;;;;;;;12.00;7.28;;;2.00;70.30;;;;;;5032563;28;20045;-59
2023/01/22 03:04:09;;;;;;;11.95;7.75;;;2.00;70.30;;;;;;5034133;28;20018;-60
2023/01/22 03:06:37;;;;;;;11.45;7.05;;;2.20;70.50;;;;;;5026634;28;20034;-60
2023/01/22 03:09:03;;;;;;;13.13;7.47;;;2.00;70.20;;;;;;5018269;28;20018;-59
2023/01/22 03:11:31;;;;;;;14.07;8.02;;;2.00;70.10;;;;;;5035030;28;20026;-59
2023/01/22 03:22:11;;;;;;;12.48;7.63;;;2.20;70.40;;;;;;5029022;28;20040;-59
2023/01/22 03:24:37;;;;;;;15.18;8.38;;;2.10;70.40;;;;;;5031519;28;20022;-60
2023/01/22 03:27:03;;;;;;;12.98;7.65;;;2.00;70.10;;;;;;5032006;28;20030;-60
2023/01/22 03:29:29;;;;;;;14.88;8.38;;;2.10;70.40;;;;;;5030694;28;20021;-59
2023/01/22 03:31:55;;;;;;;14.10;8.35;;;2.00;70.40;;;;;;5034306;28;20038;-60
2023/01/22 03:34:23;;;;;;;12.95;7.88;;;2.00;70.50;;;;;;5033744;28;20084;-60
2023/01/22 03:36:49;;;;;;;14.55;8.70;;;2.20;70.70;;;;;;5029140;28;20033;-59
2023/01/22 03:39:14;;;;;;;14.30;7.93;;;2.30;70.70;;;;;;5030998;28;20018;-59
2023/01/22 03:41:40;;;;;;;15.63;8.70;;;2.10;70.60;;;;;;5031975;28;20093;-60
2023/01/22 03:44:10;;;;;;;17.60;8.90;;;2.10;70.80;;;;;;5030494;28;20049;-61
2023/01/22 03:46:38;;;;;;;15.13;8.88;;;2.10;70.70;;;;;;5034609;28;20026;-60
2023/01/22 03:49:03;;;;;;;13.77;7.85;;;2.20;70.80;;;;;;5033431;28;20033;-60
2023/01/22 03:51:30;;;;;;;13.38;8.43;;;2.30;70.80;;;;;;5030906;28;20468;-60
2023/01/22 03:53:57;;;;;;;15.38;8.95;;;2.20;70.60;;;;;;5035206;28;20037;-59
2023/01/22 03:56:24;;;;;;;15.75;9.18;;;2.20;70.40;;;;;;5012751;28;20118;-60
2023/01/22 03:58:50;;;;;;;17.30;9.90;;;2.20;70.50;;;;;;5034961;28;20036;-60
2023/01/22 04:01:27;;;;;;;17.90;9.13;;;2.20;70.60;;;;;;5014971;28;20037;-60
2023/01/22 04:03:53;;;;;;;14.77;8.88;;;2.40;70.90;;;;;;5031825;28;20379;-60
2023/01/22 04:06:20;;;;;;;18.52;9.70;;;2.20;70.30;;;;;;5030702;28;20026;-60
2023/01/22 04:08:48;;;;;;;16.30;9.32;;;2.20;70.40;;;;;;5035704;28;20029;-60
2023/01/22 04:11:14;;;;;;;14.25;8.38;;;2.20;70.50;;;;;;5034937;28;20598;-60
2023/01/22 04:13:41;;;;;;;13.43;8.57;;;2.20;70.60;;;;;;5031492;28;20029;-61
2023/01/22 04:16:09;;;;;;;15.98;9.38;;;2.20;70.60;;;;;;5033023;28;20393;-60
2023/01/22 04:18:35;;;;;;;15.95;9.23;;;2.20;70.70;;;;;;4969388;28;20053;-59
2023/01/22 04:21:01;;;;;;;14.38;8.68;;;2.20;70.70;;;;;;5032856;28;20033;-60
2023/01/22 04:23:27;;;;;;;15.07;8.95;;;2.20;70.50;;;;;;5015875;28;20025;-60
2023/01/22 04:25:53;;;;;;;15.50;9.25;;;2.20;70.50;;;;;;5029210;28;20544;-60
2023/01/22 04:28:19;;;;;;;13.57;8.20;;;2.20;70.60;;;;;;5023572;28;20044;-61
2023/01/22 04:30:46;;;;;;;15.88;9.02;;;2.20;70.50;;;;;;5035730;28;20033;-60
2023/01/22 04:33:12;;;;;;;12.95;8.35;;;2.20;71.30;;;;;;5027537;28;21124;-60
2023/01/22 04:35:38;;;;;;;14.30;8.35;;;2.20;70.50;;;;;;5030129;28;20033;-60
2023/01/22 04:38:06;;;;;;;14.10;8.40;;;2.20;70.60;;;;;;5036863;28;20037;-59
2023/01/22 04:40:32;;;;;;;12.98;8.05;;;2.40;70.70;;;;;;5026119;28;20037;-60
2023/01/22 04:43:02;;;;;;;14.80;8.85;;;2.20;70.50;;;;;;5037298;28;20029;-59
2023/01/22 04:45:28;;;;;;;15.52;8.70;;;2.20;70.50;;;;;;5017735;28;20045;-60
2023/01/22 04:47:54;;;;;;;15.77;9.25;;;2.20;70.50;;;;;;5027162;28;20044;-60
2023/01/22 04:50:23;;;;;;;15.45;8.63;;;2.20;70.60;;;;;;5033122;28;20026;-60
2023/01/22 04:52:53;;;;;;;14.00;8.43;;;2.20;70.70;;;;;;5039621;28;20021;-60
2023/01/22 04:55:19;;;;;;;15.23;8.95;;;2.20;70.70;;;;;;5030784;28;20029;-59
2023/01/22 04:57:45;;;;;;;14.20;8.65;;;2.40;70.80;;;;;;5026547;28;20026;-60
2023/01/22 05:00:12;;;;;;;16.17;8.48;;;2.40;70.90;;;;;;5030834;28;20093;-60
2023/01/22 05:02:38;;;;;;;15.48;9.50;;;2.20;70.80;;;;;;5032890;28;20137;-60
2023/01/22 05:05:05;;;;;;;14.75;8.82;;;2.20;70.70;;;;;;5029897;28;20850;-60
2023/01/22 05:07:31;;;;;;;13.52;8.75;;;2.30;70.80;;;;;;5030356;28;20030;-59
2023/01/22 05:09:56;;;;;;;14.88;9.13;;;2.30;70.70;;;;;;5014181;28;21538;-61
2023/01/22 05:12:22;;;;;;;13.68;8.05;;;2.30;70.60;;;;;;5031970;28;20094;-60
2023/01/22 05:14:48;;;;;;;14.63;9.07;;;2.30;70.50;;;;;;5010860;28;20106;-59
2023/01/22 05:17:13;;;;;;;16.17;9.18;;;2.30;70.50;;;;;;5031871;28;20064;-59
2023/01/22 05:19:39;;;;;;;15.68;8.77;;;2.30;70.50;;;;;;5032156;28;20033;-60
2023/01/22 05:22:05;;;;;;;15.30;8.82;;;2.30;70.60;;;;;;5029930;28;20049;-60
2023/01/22 05:24:30;;;;;;;14.80;8.75;;;2.30;70.60;;;;;;5028284;28;20044;-59
2023/01/22 05:26:56;;;;;;;14.95;8.75;;;2.30;70.60;;;;;;5029126;28;20036;-60
2023/01/22 05:29:25;;;;;;;15.82;8.65;;;2.40;70.60;;;;;;5034610;28;20037;-60
2023/01/22 05:31:55;;;;;;;14.25;8.73;;;2.40;70.50;;;;;;5026284;28;20062;-60
2023/01/22 05:34:21;;;;;;;15.98;9.40;;;2.50;70.50;;;;;;5032764;28;20040;-59
2023/01/22 05:36:47;;;;;;;14.25;8.40;;;2.40;70.40;;;;;;5030230;28;20560;-60
2023/01/22 05:39:14;;;;;;;15.30;9.02;;;2.40;70.40;;;;;;5008181;28;20025;-59
2023/01/22 05:41:39;;;;;;;15.40;8.32;;;2.40;70.50;;;;;;5006405;28;20101;-60
2023/01/22 05:44:05;;;;;;;13.82;7.95;;;2.40;70.50;;;;;;5014213;28;20076;-59
2023/01/22 05:46:31;;;;;;;15.80;8.95;;;2.40;70.50;;;;;;5035449;28;20055;-58
2023/01/22 05:48:57;;;;;;;15.90;8.93;;;2.50;70.50;;;;;;5022262;28;20025;-59
2023/01/22 05:51:24;;;;;;;14.70;9.05;;;2.50;70.40;;;;;;5029499;28;20041;-60
2023/01/22 05:53:50;;;;;;;14.65;8.68;;;2.80;70.70;;;;;;5028634;28;20516;-59
2023/01/22 05:56:17;;;;;;;14.38;9.32;;;2.50;70.50;;;;;;5029766;28;20048;-59
2023/01/22 05:58:43;;;;;;;15.23;9.60;;;2.60;70.60;;;;;;5032333;28;20546;-60
2023/01/22 06:01:08;;;;;;;15.55;9.38;;;2.60;70.50;;;;;;5027068;28;20063;-60
2023/01/22 06:03:34;;;;;;;17.85;9.90;;;2.60;70.40;;;;;;5030426;28;20025;-59
2023/01/22 06:06:04;;;;;;;17.95;9.93;;;2.60;70.30;;;;;;5031102;28;20030;-60
2023/01/22 06:08:30;;;;;;;15.32;9.50;;;2.60;70.30;;;;;;5030635;28;20017;-60
2023/01/22 06:11:00;;;;;;;15.93;9.63;;;2.60;70.30;;;;;;5025831;28;20072;-58
2023/01/22 06:13:27;;;;;;;17.15;9.57;;;2.60;70.30;;;;;;5026359;28;20129;-59
2023/01/22 06:15:53;;;;;;;18.15;10.52;;;2.60;70.30;;;;;;5033037;28;20017;-59
2023/01/22 06:18:20;;;;;;;18.38;10.88;;;2.60;70.20;;;;;;5029834;28;20086;-60
2023/01/22 06:20:51;;;;;;;18.40;10.60;;;2.60;70.20;;;;;;4962355;28;20046;-60
2023/01/22 06:23:17;;;;;;;16.45;10.25;;;2.60;70.90;;;;;;5022496;28;20054;-60
2023/01/22 06:25:43;;;;;;;19.52;9.95;;;2.60;70.10;;;;;;5022290;28;20497;-60
2023/01/22 06:28:09;;;;;;;17.17;9.90;;;2.60;70.10;;;;;;5011862;28;20033;-60
2023/01/22 06:30:36;;;;;;;16.85;9.77;;;2.60;70.10;;;;;;5033626;28;20036;-60
2023/01/22 06:33:02;;;;;;;16.55;9.38;;;2.60;70.10;;;;;;5035310;28;20014;-59
2023/01/22 06:35:27;;;;;;;14.98;8.60;;;2.60;70.10;;;;;;5030946;28;20113;-60
2023/01/22 06:37:53;;;;;;;16.20;9.30;;;2.60;70.00;;;;;;5018448;28;20021;-60
2023/01/22 06:40:19;;;;;;;14.70;8.60;;;2.60;70.00;;;;;;5033985;28;20068;-61
2023/01/22 06:42:44;;;;;;;17.85;9.27;;;2.60;70.00;;;;;;5035492;28;20025;-60
2023/01/22 06:45:10;;;;;;;15.35;8.95;;;2.70;70.00;;;;;;5025021;28;20056;-59
2023/01/22 06:47:36;;;;;;;14.05;8.85;;;2.60;70.10;;;;;;5034275;28;20026;-61
2023/01/22 06:50:02;;;;;;;15.90;8.23;;;2.60;70.10;;;;;;5032047;28;20030;-60
2023/01/22 06:52:28;;;;;;;15.63;8.77;;;2.60;70.00;;;;;;5034302;28;20022;-61
2023/01/22 06:54:53;;;;;;;15.20;8.32;;;2.50;69.90;;;;;;5013060;28;20037;-61
2023/01/22 06:57:19;;;;;;;14.80;8.40;;;2.60;70.00;;;;;;5018270;28;20090;-59
2023/01/22 06:59:45;;;;;;;15.25;9.35;;;2.60;69.90;;;;;;5035911;28;20025;-60
2023/01/22 07:02:17;;;;;;;16.25;8.90;;;2.50;69.80;;;;;;5031289;28;20033;-60
2023/01/22 07:04:43;;;;;;;16.42;9.80;;;2.80;70.70;;;;;;5013784;28;20033;-61
2023/01/22 07:07:09;;;;;;;16.98;9.05;;;2.50;69.80;;;;;;5034289;28;20033;-61
2023/01/22 07:09:35;;;;;;;15.70;8.98;;;2.50;69.90;;;;;;5033252;28;20065;-60
2023/01/22 07:12:01;;;;;;;13.82;9.02;;;2.50;70.00;;;;;;5030304;28;20038;-59
2023/01/22 07:14:27;;;;;;;19.35;9.35;;;2.80;70.20;;;;;;5027458;28;20137;-60
2023/01/22 07:16:54;;;;;;;13.05;8.30;;;2.80;70.20;;;;;;5032792;28;20021;-61
2023/01/22 07:19:19;;;;;;;13.55;8.40;;;2.50;70.10;;;;;;5030342;28;20025;-59
2023/01/22 07:21:45;;;;;;;14.52;8.23;;;2.50;70.10;;;;;;5035367;28;20041;-60
2023/01/22 07:24:11;;;;;;;13.50;8.38;;;2.50;70.10;;;;;;5032923;28;20041;-60
2023/01/22 07:26:37;;;;;;;13.38;8.52;;;2.50;70.10;;;;;;5032683;28;20058;-59
2023/01/22 07:29:04;;;;;;;14.82;8.60;;;2.50;70.20;;;;;;5015465;28;20034;-60
2023/01/22 07:31:29;;;;;;;15.73;8.90;;;2.50;70.20;;;;;;5034030;28;20029;-59
2023/01/22 07:33:55;;;;;;;26.40;15.68;;;2.90;70.60;;;;;;5034424;28;20045;-59
2023/01/22 07:36:21;;;;;;;29.13;16.88;;;2.60;70.30;;;;;;5028473;28;20041;-62
2023/01/22 07:38:46;;;;;;;23.55;13.57;;;2.80;70.50;;;;;;5029218;28;20043;-59
2023/01/22 07:41:12;;;;;;;21.02;11.77;;;2.70;70.40;;;;;;5029951;28;20061;-60
2023/01/22 07:43:38;;;;;;;17.13;11.00;;;2.70;70.40;;;;;;5028411;28;20042;-59
2023/01/22 07:46:05;;;;;;;17.48;10.75;;;2.80;70.40;;;;;;5028797;28;20053;-60
2023/01/22 07:48:31;;;;;;;19.02;10.73;;;2.80;70.30;;;;;;5015460;28;20109;-60
2023/01/22 07:51:01;;;;;;;18.55;9.60;;;2.80;70.30;;;;;;5033651;28;20109;-59
2023/01/22 07:53:27;;;;;;;16.15;10.57;;;3.10;70.50;;;;;;5034651;28;20026;-60
2023/01/22 07:55:53;;;;;;;18.50;10.63;;;3.00;70.40;;;;;;5031887;28;20045;-60
2023/01/22 07:58:19;;;;;;;22.23;10.73;;;3.00;70.40;;;;;;5029743;28;20030;-59
2023/01/22 08:00:45;;;;;;;15.98;10.18;;;3.00;70.30;;;;;;5014370;28;20084;-59
2023/01/22 08:03:12;;;;;;;19.00;10.85;;;3.10;70.30;;;;;;5013989;28;20029;-59
2023/01/22 08:05:38;;;;;;;19.13;10.85;;;3.10;70.30;;;;;;5036736;28;20036;-59
2023/01/22 08:08:05;;;;;;;17.67;10.55;;;3.50;70.40;;;;;;5017592;28;21500;-60
2023/01/22 08:10:31;;;;;;;18.52;9.75;;;3.20;70.00;;;;;;5029869;28;20022;-60
2023/01/22 08:12:56;;;;;;;17.98;10.38;;;3.30;69.90;;;;;;5033952;28;20037;-60
2023/01/22 08:15:22;;;;;;;13.60;8.57;;;3.30;69.90;;;;;;5028848;28;20029;-60
2023/01/22 08:17:49;;;;;;;16.30;10.02;;;3.40;69.90;;;;;;5032813;28;20044;-60
2023/01/22 08:20:15;;;;;;;15.55;9.48;;;3.50;69.70;;;;;;5033227;28;20037;-59
2023/01/22 08:22:41;;;;;;;17.33;10.02;;;3.50;69.60;;;;;;5034639;28;20021;-60
2023/01/22 08:25:07;;;;;;;15.10;8.95;;;3.50;69.50;;;;;;5013569;28;20030;-58
2023/01/22 08:27:36;;;;;;;14.57;9.40;;;3.60;69.50;;;;;;5011788;28;20050;-60
2023/01/22 08:30:03;;;;;;;15.38;9.40;;;3.70;69.40;;;;;;5005300;28;20060;-60
2023/01/22 08:32:29;;;;;;;14.82;8.35;;;3.80;69.30;;;;;;5027281;28;20394;-60
2023/01/22 08:34:55;;;;;;;18.00;9.30;;;3.80;69.20;;;;;;5031683;28;20474;-61
2023/01/22 08:37:22;;;;;;;15.45;8.95;;;3.90;68.80;;;;;;5031513;28;20044;-60
2023/01/22 08:39:47;;;;;;;13.88;8.93;;;3.90;68.60;;;;;;5009137;28;20119;-60
2023/01/22 08:42:13;;;;;;;16.25;10.05;;;3.90;68.50;;;;;;5025568;28;20137;-61
2023/01/22 08:44:38;;;;;;;17.38;9.88;;;4.00;68.20;;;;;;5027796;28;20494;-60
2023/01/22 08:47:04;;;;;;;15.95;10.32;;;4.00;68.10;;;;;;5029566;28;20022;-60
2023/01/22 08:49:30;;;;;;;15.02;9.35;;;4.00;68.20;;;;;;5036189;28;20043;-60
2023/01/22 08:51:56;;;;;;;16.65;9.90;;;4.00;67.90;;;;;;5026804;28;20057;-59
2023/01/22 08:54:22;;;;;;;16.02;9.70;;;4.00;67.70;;;;;;5025125;28;20029;-60
2023/01/22 08:56:47;;;;;;;17.48;10.02;;;4.10;67.80;;;;;;5031649;28;20030;-61
2023/01/22 08:59:14;;;;;;;16.38;10.02;;;4.10;67.80;;;;;;5029624;28;20054;-60
2023/01/22 09:01:40;;;;;;;15.18;9.20;;;4.10;67.60;;;;;;5026366;28;20112;-60
2023/01/22 09:04:08;;;;;;;14.70;8.35;;;4.00;67.80;;;;;;5006590;28;20060;-61
2023/01/22 09:06:35;;;;;;;16.63;9.10;;;4.10;67.40;;;;;;5036566;28;20022;-61
2023/01/22 09:09:01;;;;;;;14.48;8.60;;;4.10;67.40;;;;;;5032699;28;20028;-60
2023/01/22 09:11:28;;;;;;;12.25;7.63;;;4.10;67.50;;;;;;5031021;28;20466;-59
2023/01/22 09:13:55;;;;;;;13.57;8.43;;;4.10;67.60;;;;;;5036837;28;20039;-61
2023/01/22 09:16:22;;;;;;;12.25;8.32;;;4.20;67.60;;;;;;5031880;28;20021;-60
2023/01/22 09:18:48;;;;;;;13.02;6.95;;;4.20;67.40;;;;;;5025890;28;20034;-61
2023/01/22 09:21:14;;;;;;;17.10;8.45;;;4.30;67.40;;;;;;5037953;28;20595;-60
2023/01/22 09:23:39;;;;;;;11.27;7.03;;;4.30;67.50;;;;;;5034024;28;20085;-60
2023/01/22 09:26:05;;;;;;;10.13;6.53;;;4.40;67.50;;;;;;5028775;28;20057;-61
2023/01/22 09:28:31;;;;;;;12.38;7.55;;;4.50;67.50;;;;;;5028947;28;20077;-60
2023/01/22 09:30:57;;;;;;;12.73;7.38;;;4.50;66.90;;;;;;5033787;28;20524;-60
2023/01/22 09:33:22;;;;;;;13.57;8.98;;;4.50;66.90;;;;;;5010997;28;20026;-60
2023/01/22 09:35:48;;;;;;;13.63;8.23;;;4.60;66.80;;;;;;5026385;28;20033;-59
2023/01/22 09:38:14;;;;;;;15.27;8.20;;;4.60;66.90;;;;;;5033003;28;20041;-60
2023/01/22 09:40:47;;;;;;;11.77;7.05;;;4.70;66.70;;;;;;5028724;28;20034;-61
2023/01/22 09:43:28;;;;;;;13.48;7.75;;;4.70;66.30;;;;;;5031843;28;20029;-61
2023/01/22 09:45:57;;;;;;;12.38;7.70;;;4.70;65.90;;;;;;5029260;28;20068;-61
2023/01/22 09:48:35;;;;;;;14.35;7.43;;;4.70;66.00;;;;;;5034804;28;20048;-60
2023/01/22 09:51:02;;;;;;;11.85;7.30;;;4.70;65.90;;;;;;5029302;28;20033;-60
2023/01/22 09:53:28;;;;;;;12.23;7.30;;;4.70;66.10;;;;;;5025359;28;20112;-59
2023/01/22 09:55:56;;;;;;;13.32;7.43;;;4.70;66.00;;;;;;5026516;28;20030;-60
2023/01/22 09:58:25;;;;;;;13.18;7.15;;;4.70;65.80;;;;;;5035537;28;20474;-60
2023/01/22 10:00:56;;;;;;;14.60;7.70;;;4.70;65.90;;;;;;5029603;28;20037;-60
2023/01/22 10:03:25;;;;;;;12.65;7.30;;;4.80;65.90;;;;;;5028305;28;20113;-60
2023/01/22 10:05:56;;;;;;;15.13;8.18;;;4.80;66.00;;;;;;5030616;28;20026;-60
2023/01/22 10:08:24;;;;;;;13.85;7.95;;;4.80;66.10;;;;;;5036208;28;20029;-60
2023/01/22 10:10:50;;;;;;;13.82;7.97;;;4.80;66.70;;;;;;5040938;28;20116;-61
2023/01/22 10:13:22;;;;;;;13.65;8.02;;;4.90;66.20;;;;;;5040523;28;20021;-60
2023/01/22 10:15:49;;;;;;;12.05;7.60;;;4.90;66.00;;;;;;5036249;28;20031;-60
2023/01/22 10:18:24;;;;;;;13.80;8.05;;;5.00;66.00;;;;;;5033073;28;20037;-61
2023/01/22 10:20:51;;;;;;;13.80;7.78;;;5.00;65.90;;;;;;5036468;28;20045;-61
2023/01/22 10:23:20;;;;;;;12.73;8.52;;;5.00;66.00;;;;;;5040837;28;20021;-60
2023/01/22 10:25:46;;;;;;;13.30;7.95;;;5.10;65.90;;;;;;5030409;28;20037;-60
2023/01/22 10:28:13;;;;;;;12.95;8.15;;;5.10;65.80;;;;;;5033765;28;20013;-60
2023/01/22 10:30:47;;;;;;;14.60;8.60;;;5.20;65.80;;;;;;5032412;28;20033;-60
2023/01/22 10:33:16;;;;;;;14.40;8.00;;;5.30;65.40;;;;;;5016540;28;20064;-60
2023/01/22 10:35:47;;;;;;;13.68;8.80;;;5.30;65.20;;;;;;5036375;28;20514;-60
2023/01/22 10:38:20;;;;;;;10.95;7.30;;;5.30;65.20;;;;;;5032238;28;20026;-60
2023/01/22 10:40:53;;;;;;;13.02;7.72;;;5.40;65.10;;;;;;5038415;28;20057;-60
2023/01/22 10:43:18;;;;;;;11.43;7.60;;;5.40;65.30;;;;;;5037286;28;20017;-60
2023/01/22 10:45:55;;;;;;;12.98;6.90;;;5.40;65.30;;;;;;5039877;28;20048;-60
2023/01/22 10:48:23;;;;;;;11.88;6.47;;;5.50;64.90;;;;;;5033117;28;20381;-60
2023/01/22 10:51:14;;;;;;;10.15;6.68;;;5.50;65.10;;;;;;5037823;28;20037;-61
2023/01/22 10:53:50;;;;;;;14.80;8.50;;;5.60;64.50;;;;;;5035265;28;20076;-60
2023/01/22 10:56:35;;;;;;;11.40;7.05;;;5.70;64.80;;;;;;5035177;28;20028;-60
2023/01/22 10:59:28;;;;;;;9.95;6.57;;;5.80;64.30;;;;;;5035007;28;20032;-61
2023/01/22 11:02:09;;;;;;;12.60;7.00;;;5.80;63.90;;;;;;5035810;28;20068;-60
2023/01/22 11:04:35;;;;;;;10.75;7.32;;;5.90;63.70;;;;;;5021988;28;20025;-60
2023/01/22 11:07:19;;;;;;;16.88;10.15;;;5.90;64.00;;;;;;5034865;28;20045;-60
2023/01/22 11:10:22;;;;;;;11.77;7.15;;;5.90;63.60;;;;;;5031898;28;20049;-60
2023/01/22 11:12:56;;;;;;;10.85;6.47;;;6.00;63.20;;;;;;5037044;28;20038;-60
2023/01/22 11:15:47;;;;;;;12.45;7.00;;;6.00;63.50;;;;;;5037028;28;20081;-60
2023/01/22 11:18:21;;;;;;;11.05;6.85;;;6.00;63.40;;;;;;5038858;28;20064;-61
2023/01/22 11:20:53;;;;;;;12.90;7.50;;;6.00;63.70;;;;;;5034168;28;20056;-60
2023/01/22 11:23:28;;;;;;;12.35;7.57;;;6.00;63.50;;;;;;5031975;28;20044;-61
2023/01/22 11:26:21;;;;;;;13.23;7.90;;;6.00;63.60;;;;;;5036128;28;20706;-60
2023/01/22 11:29:03;;;;;;;14.90;7.93;;;5.90;62.90;;;;;;5034714;28;20061;-61
2023/01/22 11:31:58;;;;;;;14.73;7.72;;;5.90;62.90;;;;;;5033798;28;20017;-61
2023/01/22 11:34:41;;;;;;;15.95;8.65;;;5.90;63.00;;;;;;5026409;28;20048;-60
2023/01/22 11:37:38;;;;;;;13.35;8.15;;;5.90;63.10;;;;;;5032428;28;20037;-61
2023/01/22 11:40:13;;;;;;;16.60;8.95;;;5.80;63.20;;;;;;5031131;28;20546;-60
2023/01/22 11:42:48;;;;;;;13.43;7.90;;;5.80;62.90;;;;;;5031926;28;20484;-59
2023/01/22 11:45:53;;;;;;;12.75;7.40;;;5.70;63.20;;;;;;5031017;28;20058;-60
2023/01/22 11:48:33;;;;;;;11.65;7.00;;;5.60;62.70;;;;;;5006743;28;20123;-61
2023/01/22 11:51:02;;;;;;;13.48;7.53;;;5.60;63.40;;;;;;5032139;28;20033;-61
2023/01/22 11:53:30;;;;;;;13.23;7.90;;;5.50;63.60;;;;;;5032814;28;20068;-60
2023/01/22 11:56:16;;;;;;;11.65;6.78;;;5.60;63.90;;;;;;5039836;28;20068;-60
2023/01/22 11:59:17;;;;;;;12.32;7.07;;;5.50;63.90;;;;;;5030595;28;20033;-60
2023/01/22 12:02:14;;;;;;;12.40;6.60;;;5.50;63.20;;;;;;4927177;29;20052;-59
2023/01/22 12:04:58;;;;;;;9.50;6.50;;;5.50;63.10;;;;;;4940540;29;20035;-61
2023/01/22 12:07:30;;;;;;;9.73;6.55;;;5.50;63.10;;;;;;4946731;29;20083;-59
2023/01/22 12:10:08;;;;;;;11.00;6.50;;;5.40;63.50;;;;;;4944673;29;20091;-59
2023/01/22 12:12:46;;;;;;;9.95;6.05;;;5.40;63.40;;;;;;4947652;29;20039;-60
2023/01/22 12:15:42;;;;;;;10.13;6.50;;;5.40;63.40;;;;;;4947299;29;20036;-62
2023/01/22 12:18:31;;;;;;;12.70;7.72;;;5.40;63.40;;;;;;4941330;29;20038;-61
2023/01/22 12:21:02;;;;;;;10.15;6.18;;;5.40;63.40;;;;;;4884799;29;20543;-61
2023/01/22 12:23:37;;;;;;;9.98;6.53;;;5.30;63.60;;;;;;4939425;29;20035;-61
2023/01/22 12:26:13;;;;;;;10.30;6.30;;;5.30;63.50;;;;;;4957274;28;20186;-61
2023/01/22 12:28:42;;;;;;;7.97;4.88;;;5.30;63.50;;;;;;4954347;29;20036;-61
2023/01/22 12:31:20;;;;;;;211.93;99.32;;;5.30;63.50;;;;;;4943093;29;20031;-60
2023/01/22 12:33:45;;;;;;;38.08;22.73;;;5.30;63.40;;;;;;4945613;29;20032;-61
2023/01/22 12:36:15;;;;;;;15.15;10.05;;;5.40;63.70;;;;;;4935610;29;20031;-60
2023/01/22 12:38:59;;;;;;;10.57;7.35;;;5.40;63.80;;;;;;4998327;28;20045;-61
2023/01/22 12:41:56;;;;;;;7.93;5.40;;;5.40;63.70;;;;;;5007574;28;20096;-61
2023/01/22 12:44:47;;;;;;;6.97;4.75;;;5.50;63.20;;;;;;5017000;28;20069;-62
2023/01/22 12:47:22;;;;;;;8.75;5.18;;;5.50;63.20;;;;;;5034235;28;20105;-62
2023/01/22 12:49:50;;;;;;;8.60;5.22;;;5.40;63.30;;;;;;5021406;28;20053;-61
2023/01/22 12:52:30;;;;;;;11.13;6.35;;;5.40;63.40;;;;;;5025423;28;20041;-61
2023/01/22 12:54:57;;;;;;;7.65;5.70;;;5.40;63.30;;;;;;5026082;28;20530;-61
2023/01/22 12:57:34;;;;;;;10.70;6.22;;;5.40;63.60;;;;;;5034049;28;20025;-61
2023/01/22 13:00:22;;;;;;;7.82;5.13;;;5.40;63.60;;;;;;5037561;28;20040;-62
2023/01/22 13:02:47;;;;;;;7.60;5.00;;;5.40;63.40;;;;;;5008205;28;20045;-61
2023/01/22 13:05:21;;;;;;;10.00;5.88;;;5.40;63.70;;;;;;5010153;28;20061;-61
2023/01/22 13:07:48;;;;;;;10.90;6.60;;;5.40;63.60;;;;;;5013462;28;20129;-62